createdAt,value
2023-03-08T00:00:46.317Z,25.00
2023-03-08T00:03:15.692Z,25.03
2023-03-08T00:05:45.057Z,25.04
2023-03-08T00:08:13.195Z,25.04
2023-03-08T00:10:41.248Z,25.04
2023-03-08T00:13:09.301Z,25.04
2023-03-08T00:15:38.495Z,24.99
2023-03-08T00:18:06.544Z,25.02
2023-03-08T00:20:34.666Z,25.01
2023-03-08T00:23:04.103Z,25.00
2023-03-08T00:25:32.033Z,24.96
2023-03-08T00:27:59.983Z,25.00
2023-03-08T00:30:30.441Z,25.00
2023-03-08T00:32:58.422Z,25.01
2023-03-08T00:35:26.577Z,25.04
2023-03-08T00:37:54.553Z,25.05
2023-03-08T00:40:24.008Z,25.08
2023-03-08T00:42:52.039Z,25.05
2023-03-08T00:45:20.099Z,25.04
2023-03-08T00:47:47.998Z,25.03
2023-03-08T00:50:16.180Z,25.07
2023-03-08T00:52:44.189Z,25.06
2023-03-08T00:55:14.468Z,25.07
2023-03-08T00:57:44.065Z,25.07
2023-03-08T01:00:13.804Z,25.06
2023-03-08T01:02:42.100Z,25.06
2023-03-08T01:05:10.811Z,25.08
2023-03-08T01:07:38.997Z,25.08
2023-03-08T01:10:09.278Z,25.10
2023-03-08T01:12:38.631Z,25.10
2023-03-08T01:15:09.348Z,25.09
2023-03-08T01:17:37.445Z,25.08
2023-03-08T01:20:07.322Z,25.07
2023-03-08T01:22:35.448Z,25.05
2023-03-08T01:25:03.413Z,25.01
2023-03-08T01:27:31.468Z,25.03
2023-03-08T01:29:59.561Z,25.01
2023-03-08T01:32:29.167Z,25.02
2023-03-08T01:35:02.049Z,24.99
2023-03-08T01:37:30.143Z,24.97
2023-03-08T01:39:58.391Z,24.96
2023-03-08T01:42:26.916Z,24.94
2023-03-08T01:44:57.226Z,24.93
2023-03-08T01:47:29.279Z,24.91
2023-03-08T01:50:17.502Z,24.88
2023-03-08T01:52:50.711Z,24.83
2023-03-08T01:55:20.760Z,24.87
2023-03-08T01:57:53.463Z,24.86
2023-03-08T02:00:23.945Z,24.84
2023-03-08T02:02:58.611Z,24.79
2023-03-08T02:05:28.341Z,24.68
2023-03-08T02:08:02.274Z,24.81
2023-03-08T02:10:35.024Z,24.80
2023-03-08T02:13:04.290Z,24.78
2023-03-08T02:15:32.812Z,24.78
2023-03-08T02:18:02.293Z,24.79
2023-03-08T02:20:32.744Z,24.66
2023-03-08T02:23:13.933Z,24.72
2023-03-08T02:25:50.611Z,24.76
2023-03-08T02:28:19.017Z,24.76
2023-03-08T02:30:47.310Z,24.76
2023-03-08T02:33:16.755Z,24.76
2023-03-08T02:35:45.603Z,24.75
2023-03-08T02:38:17.406Z,24.75
2023-03-08T02:40:45.523Z,24.74
2023-03-08T02:43:13.639Z,24.75
2023-03-08T02:45:41.625Z,24.74
2023-03-08T02:48:10.358Z,24.72
2023-03-08T02:50:38.392Z,24.74
2023-03-08T02:53:07.251Z,24.74
2023-03-08T02:55:37.237Z,24.73
2023-03-08T02:58:11.232Z,24.71
2023-03-08T03:00:40.368Z,24.62
2023-03-08T03:03:08.511Z,24.72
2023-03-08T03:05:36.574Z,24.73
2023-03-08T03:08:07.994Z,24.75
2023-03-08T03:10:41.282Z,24.76
2023-03-08T03:13:09.343Z,24.74
2023-03-08T03:15:39.650Z,24.06
2023-03-08T03:18:08.184Z,24.74
2023-03-08T03:20:36.165Z,24.73
2023-03-08T03:23:04.209Z,24.73
2023-03-08T03:26:07.276Z,24.72
2023-03-08T03:28:36.041Z,24.72
2023-03-08T03:31:09.011Z,24.74
2023-03-08T03:33:37.563Z,24.74
2023-03-08T03:36:06.430Z,24.69
2023-03-08T03:38:36.226Z,24.74
2023-03-08T03:41:07.985Z,24.76
2023-03-08T03:43:38.082Z,24.74
2023-03-08T03:46:13.059Z,24.73
2023-03-08T03:48:42.567Z,24.72
2023-03-08T03:51:13.138Z,24.63
2023-03-08T03:53:46.119Z,24.70
2023-03-08T03:56:19.147Z,24.72
2023-03-08T03:58:48.028Z,24.69
2023-03-08T04:01:22.114Z,24.70
2023-03-08T04:03:50.646Z,24.64
2023-03-08T04:06:22.391Z,24.71
2023-03-08T04:08:54.340Z,24.71
2023-03-08T04:11:25.760Z,24.73
2023-03-08T04:13:54.477Z,24.72
2023-03-08T04:16:29.248Z,24.72
2023-03-08T04:19:01.755Z,24.62
2023-03-08T04:21:32.078Z,24.72
2023-03-08T04:24:00.918Z,24.71
2023-03-08T04:26:31.227Z,24.73
2023-03-08T04:28:59.244Z,24.50
2023-03-08T04:31:30.370Z,24.75
2023-03-08T04:34:02.763Z,24.72
2023-03-08T04:36:31.518Z,24.74
2023-03-08T04:39:00.963Z,24.75
2023-03-08T04:41:31.578Z,24.77
2023-03-08T04:44:11.826Z,24.59
2023-03-08T04:46:44.825Z,24.75
2023-03-08T04:49:17.548Z,24.75
2023-03-08T04:51:51.508Z,24.66
2023-03-08T04:54:19.703Z,24.75
2023-03-08T04:56:55.088Z,24.76
2023-03-08T04:59:25.839Z,24.76
2023-03-08T05:01:56.664Z,24.75
2023-03-08T05:04:25.651Z,24.76
2023-03-08T05:06:53.945Z,24.75
2023-03-08T05:09:26.046Z,24.74
2023-03-08T05:11:56.280Z,24.75
2023-03-08T05:14:24.238Z,24.74
2023-03-08T05:16:52.236Z,24.73
2023-03-08T05:19:20.242Z,24.74
2023-03-08T05:21:52.255Z,24.73
2023-03-08T05:24:21.251Z,24.73
2023-03-08T05:26:49.903Z,24.37
2023-03-08T05:29:20.827Z,24.75
2023-03-08T05:31:51.059Z,24.75
2023-03-08T05:34:19.746Z,24.74
2023-03-08T05:36:48.970Z,24.75
2023-03-08T05:39:17.030Z,24.75
2023-03-08T05:41:55.454Z,24.75
2023-03-08T05:44:30.583Z,24.78
2023-03-08T05:47:00.654Z,24.78
2023-03-08T05:49:29.487Z,24.77
2023-03-08T05:51:58.253Z,24.76
2023-03-08T05:54:28.005Z,24.77
2023-03-08T05:57:00.283Z,24.77
2023-03-08T05:59:30.941Z,24.79
2023-03-08T06:02:02.793Z,24.77
2023-03-08T06:04:44.594Z,24.76
2023-03-08T06:07:14.739Z,24.76
2023-03-08T06:09:48.333Z,24.76
2023-03-08T06:12:18.915Z,24.74
2023-03-08T06:14:52.579Z,24.74
2023-03-08T06:17:23.181Z,24.74
2023-03-08T06:19:52.861Z,24.73
2023-03-08T06:22:20.802Z,24.72
2023-03-08T06:24:49.986Z,24.74
2023-03-08T06:27:24.608Z,24.73
2023-03-08T06:29:56.597Z,24.74
2023-03-08T06:32:25.052Z,24.75
2023-03-08T06:34:53.446Z,24.62
2023-03-08T06:37:21.543Z,24.74
2023-03-08T06:39:49.752Z,24.74
2023-03-08T06:42:19.868Z,24.75
2023-03-08T06:44:50.572Z,24.74
2023-03-08T06:47:20.094Z,24.76
2023-03-08T06:49:48.218Z,24.75
2023-03-08T06:52:16.410Z,24.74
2023-03-08T06:54:44.427Z,24.74
2023-03-08T06:57:13.207Z,24.75
2023-03-08T06:59:41.203Z,24.75
2023-03-08T07:02:10.724Z,24.62
2023-03-08T07:04:40.334Z,24.74
2023-03-08T07:07:09.117Z,24.75
2023-03-08T07:09:37.391Z,24.75
2023-03-08T07:12:08.108Z,24.75
2023-03-08T07:14:36.231Z,24.74
2023-03-08T07:17:04.157Z,24.73
2023-03-08T07:19:32.977Z,24.73
2023-03-08T07:22:02.386Z,24.73
2023-03-08T07:24:30.514Z,24.72
2023-03-08T07:26:58.444Z,24.73
2023-03-08T07:29:26.333Z,24.72
2023-03-08T07:31:54.293Z,24.72
2023-03-08T07:34:22.338Z,24.72
2023-03-08T07:36:51.074Z,24.71
2023-03-08T07:39:20.493Z,24.70
2023-03-08T07:41:48.467Z,24.70
2023-03-08T07:44:16.578Z,24.69
2023-03-08T07:46:44.579Z,24.69
2023-03-08T07:49:12.597Z,24.69
2023-03-08T07:51:40.494Z,24.68
2023-03-08T07:54:10.384Z,24.67
2023-03-08T07:56:39.762Z,24.68
2023-03-08T07:59:07.775Z,24.67
2023-03-08T08:01:35.778Z,24.70
2023-03-08T08:04:03.838Z,24.64
2023-03-08T08:06:32.047Z,24.62
2023-03-08T08:08:59.991Z,24.61
2023-03-08T08:11:27.989Z,24.64
2023-03-08T08:13:57.295Z,24.68
2023-03-08T08:16:25.864Z,24.70
2023-03-08T08:18:54.633Z,24.72
2023-03-08T08:21:23.348Z,24.75
2023-03-08T08:23:51.704Z,24.75
2023-03-08T08:26:21.550Z,24.78
2023-03-08T08:28:52.003Z,24.79
2023-03-08T08:31:23.355Z,24.79
2023-03-08T08:33:51.489Z,24.77
2023-03-08T08:36:21.511Z,24.79
2023-03-08T08:38:49.635Z,24.81
2023-03-08T08:41:19.420Z,24.84
2023-03-08T08:43:48.630Z,24.83
2023-03-08T08:46:18.581Z,24.87
2023-03-08T08:48:47.927Z,24.88
2023-03-08T08:51:16.212Z,24.90
2023-03-08T08:53:45.184Z,24.88
2023-03-08T08:56:26.242Z,24.90
2023-03-08T08:58:56.073Z,24.89
2023-03-08T09:01:25.812Z,24.90
2023-03-08T09:03:55.377Z,24.88
2023-03-08T09:06:25.572Z,24.91
2023-03-08T09:08:55.815Z,24.95
2023-03-08T09:11:24.385Z,24.97
2023-03-08T09:13:53.184Z,25.01
2023-03-08T09:16:22.778Z,25.03
2023-03-08T09:18:51.830Z,25.05
2023-03-08T09:21:21.420Z,25.10
2023-03-08T09:23:49.845Z,25.12
2023-03-08T09:26:17.899Z,25.13
2023-03-08T09:28:46.074Z,25.14
2023-03-08T09:31:17.770Z,25.10
2023-03-08T09:33:48.373Z,25.03
2023-03-08T09:36:16.850Z,25.19
2023-03-08T09:38:48.795Z,25.06
2023-03-08T09:41:49.498Z,25.22
2023-03-08T09:44:53.166Z,25.23
2023-03-08T09:47:34.231Z,25.23
2023-03-08T09:50:10.113Z,25.25
2023-03-08T09:52:41.913Z,25.26
2023-03-08T09:55:19.793Z,25.28
2023-03-08T09:57:53.446Z,25.30
2023-03-08T10:00:24.493Z,25.31
2023-03-08T10:03:05.250Z,25.16
2023-03-08T10:05:41.527Z,25.34
2023-03-08T10:08:17.916Z,25.32
2023-03-08T10:10:54.964Z,25.30
2023-03-08T10:13:34.274Z,25.28
2023-03-08T10:16:12.110Z,25.26
2023-03-08T10:18:45.710Z,25.24
2023-03-08T10:21:18.299Z,25.04
2023-03-08T10:23:48.768Z,25.11
2023-03-08T10:26:18.856Z,25.24
2023-03-08T10:28:46.838Z,25.23
2023-03-08T10:31:21.396Z,25.24
2023-03-08T10:33:53.138Z,25.24
2023-03-08T10:36:23.080Z,25.25
2023-03-08T10:39:00.248Z,25.26
2023-03-08T10:41:32.909Z,25.24
2023-03-08T10:44:01.616Z,25.23
2023-03-08T10:46:33.010Z,25.24
2023-03-08T10:49:15.896Z,25.24
2023-03-08T10:51:53.754Z,25.25
2023-03-08T10:54:21.810Z,25.26
2023-03-08T10:56:57.994Z,25.27
2023-03-08T10:59:32.548Z,25.18
2023-03-08T11:02:03.007Z,25.16
2023-03-08T11:04:32.077Z,25.22
2023-03-08T11:07:10.546Z,25.18
2023-03-08T11:09:38.711Z,25.20
2023-03-08T11:12:23.860Z,25.20
2023-03-08T11:14:52.833Z,25.19
2023-03-08T11:17:27.945Z,25.20
2023-03-08T11:20:11.175Z,25.18
2023-03-08T11:22:56.124Z,25.18
2023-03-08T11:25:36.258Z,25.10
2023-03-08T11:28:26.744Z,25.18
2023-03-08T11:31:03.225Z,25.18
2023-03-08T11:33:46.109Z,25.19
2023-03-08T11:36:22.280Z,25.19
2023-03-08T11:38:58.942Z,25.20
2023-03-08T11:41:37.674Z,25.23
2023-03-08T11:44:22.117Z,25.24
2023-03-08T11:47:04.813Z,25.24
2023-03-08T11:49:52.547Z,25.21
2023-03-08T11:52:33.882Z,25.23
2023-03-08T11:55:31.521Z,25.26
2023-03-08T11:58:05.107Z,25.25
2023-03-08T12:00:37.807Z,25.27
2023-03-08T12:03:12.726Z,25.16
2023-03-08T12:05:45.459Z,25.27
2023-03-08T12:08:18.743Z,25.29
2023-03-08T12:10:52.224Z,25.29
2023-03-08T12:13:26.223Z,25.29
2023-03-08T12:16:00.192Z,25.27
2023-03-08T12:18:36.826Z,25.25
2023-03-08T12:21:19.384Z,25.27
2023-03-08T12:23:56.350Z,25.15
2023-03-08T12:26:27.912Z,25.28
2023-03-08T12:29:01.588Z,25.34
2023-03-08T12:31:35.616Z,25.18
2023-03-08T12:34:14.079Z,25.38
2023-03-08T12:36:44.414Z,25.42
2023-03-08T12:39:30.571Z,25.23
2023-03-08T12:42:01.314Z,25.41
2023-03-08T12:44:31.177Z,25.43
2023-03-08T12:47:04.613Z,25.44
2023-03-08T12:49:36.205Z,25.43
2023-03-08T12:52:07.257Z,25.34
2023-03-08T12:54:36.786Z,25.46
2023-03-08T12:57:16.668Z,25.49
2023-03-08T12:59:45.985Z,25.50
2023-03-08T13:02:27.163Z,25.54
2023-03-08T13:05:19.172Z,25.54
2023-03-08T13:08:18.482Z,25.55
2023-03-08T13:11:00.198Z,25.50
2023-03-08T13:13:44.767Z,25.58
2023-03-08T13:16:31.639Z,25.54
2023-03-08T13:19:17.893Z,25.56
2023-03-08T13:21:51.472Z,25.54
2023-03-08T13:24:28.722Z,25.42
2023-03-08T13:27:16.118Z,25.51
2023-03-08T13:29:45.922Z,25.48
2023-03-08T13:32:16.878Z,25.48
2023-03-08T13:34:52.223Z,25.46
2023-03-08T13:37:25.132Z,25.43
2023-03-08T13:39:55.131Z,25.43
2023-03-08T13:42:24.872Z,25.42
2023-03-08T13:44:53.357Z,25.43
2023-03-08T13:47:24.766Z,25.42
2023-03-08T13:49:56.588Z,25.43
2023-03-08T13:52:30.086Z,25.43
2023-03-08T13:55:01.191Z,25.42
2023-03-08T13:57:31.574Z,25.44
2023-03-08T14:00:04.319Z,25.44
2023-03-08T14:02:33.890Z,25.45
2023-03-08T14:05:03.594Z,25.48
2023-03-08T14:07:33.101Z,25.48
2023-03-08T14:10:01.213Z,25.37
2023-03-08T14:12:32.632Z,25.51
2023-03-08T14:15:03.647Z,25.44
2023-03-08T14:17:36.161Z,25.52
2023-03-08T14:20:18.131Z,25.52
2023-03-08T14:22:49.098Z,25.51
2023-03-08T14:25:24.713Z,25.52
2023-03-08T14:27:53.069Z,25.52
2023-03-08T14:30:23.267Z,25.52
2023-03-08T14:33:03.770Z,25.53
2023-03-08T14:35:36.870Z,25.55
2023-03-08T14:38:13.578Z,25.55
2023-03-08T14:40:49.840Z,25.59
2023-03-08T14:43:20.105Z,25.61
2023-03-08T14:45:54.335Z,25.65
2023-03-08T14:48:26.012Z,25.66
2023-03-08T14:50:58.287Z,25.66
2023-03-08T14:53:32.753Z,25.64
2023-03-08T14:56:02.407Z,25.64
2023-03-08T14:58:32.251Z,25.63
2023-03-08T15:01:02.211Z,25.60
2023-03-08T15:03:31.864Z,25.63
2023-03-08T15:06:06.443Z,25.65
2023-03-08T15:08:34.420Z,25.62
2023-03-08T15:11:02.315Z,25.60
2023-03-08T15:13:30.436Z,25.54
2023-03-08T15:15:58.356Z,25.61
2023-03-08T15:18:26.456Z,25.62
2023-03-08T15:20:54.505Z,25.60
2023-03-08T15:23:25.936Z,25.61
2023-03-08T15:25:54.507Z,25.58
2023-03-08T15:28:23.820Z,25.58
2023-03-08T15:30:54.595Z,25.58
2023-03-08T15:33:23.761Z,25.59
2023-03-08T15:35:52.329Z,25.56
2023-03-08T15:38:22.762Z,25.45
2023-03-08T15:40:52.057Z,25.65
2023-03-08T15:43:19.952Z,25.63
2023-03-08T15:45:47.915Z,25.65
2023-03-08T15:48:17.683Z,25.66
2023-03-08T15:50:46.033Z,25.48
2023-03-08T15:53:20.602Z,25.65
2023-03-08T15:55:58.773Z,25.69
2023-03-08T15:58:26.817Z,25.70
2023-03-08T16:00:55.251Z,25.70
2023-03-08T16:03:26.034Z,25.71
2023-03-08T16:05:54.160Z,25.70
2023-03-08T16:08:25.033Z,25.67
2023-03-08T16:10:53.319Z,25.65
2023-03-08T16:13:23.030Z,25.63
2023-03-08T16:15:51.033Z,25.58
2023-03-08T16:18:18.964Z,25.59
2023-03-08T16:20:47.117Z,25.59
2023-03-08T16:23:15.109Z,25.55
2023-03-08T16:25:43.355Z,25.53
2023-03-08T16:28:11.860Z,25.51
2023-03-08T16:30:42.757Z,25.53
2023-03-08T16:33:10.724Z,25.53
2023-03-08T16:35:38.778Z,25.55
2023-03-08T16:38:06.822Z,25.47
2023-03-08T16:40:35.316Z,25.60
2023-03-08T16:43:03.222Z,25.60
2023-03-08T16:45:31.170Z,25.58
2023-03-08T16:48:00.485Z,25.56
2023-03-08T16:50:28.503Z,25.56
2023-03-08T16:52:57.056Z,25.53
2023-03-08T16:55:25.261Z,25.52
2023-03-08T16:57:53.445Z,25.53
2023-03-08T17:00:22.331Z,25.53
2023-03-08T17:02:50.276Z,25.37
2023-03-08T17:05:19.827Z,25.53
2023-03-08T17:07:48.181Z,25.50
2023-03-08T17:10:16.060Z,25.39
2023-03-08T17:12:43.971Z,25.42
2023-03-08T17:15:12.924Z,25.41
2023-03-08T17:17:41.725Z,25.37
2023-03-08T17:20:11.031Z,25.34
2023-03-08T17:22:40.436Z,25.36
2023-03-08T17:25:09.492Z,25.36
2023-03-08T17:27:37.489Z,25.36
2023-03-08T17:30:06.326Z,25.37
2023-03-08T17:32:34.245Z,25.33
2023-03-08T17:35:02.298Z,25.32
2023-03-08T17:37:30.191Z,25.29
2023-03-08T17:39:59.909Z,25.25
2023-03-08T17:42:27.814Z,25.24
2023-03-08T17:44:55.698Z,25.20
2023-03-08T17:47:23.633Z,25.17
2023-03-08T17:49:51.531Z,25.17
2023-03-08T17:52:19.432Z,25.15
2023-03-08T17:54:49.176Z,25.14
2023-03-08T17:57:21.783Z,25.13
2023-03-08T17:59:50.436Z,25.09
2023-03-08T18:02:18.934Z,25.00
2023-03-08T18:04:48.192Z,25.01
2023-03-08T18:07:17.691Z,25.02
2023-03-08T18:09:46.578Z,25.01
2023-03-08T18:12:14.804Z,24.98
2023-03-08T18:14:45.369Z,24.98
2023-03-08T18:17:13.417Z,24.95
2023-03-08T18:19:42.944Z,24.94
2023-03-08T18:22:11.057Z,24.91
2023-03-08T18:24:39.116Z,24.90
2023-03-08T18:27:07.667Z,24.89
2023-03-08T18:29:37.052Z,24.86
2023-03-08T18:32:06.866Z,24.86
2023-03-08T18:34:35.255Z,24.84
2023-03-08T18:37:03.255Z,24.82
2023-03-08T18:39:31.382Z,24.80
2023-03-08T18:42:01.216Z,24.80
2023-03-08T18:44:29.381Z,24.78
2023-03-08T18:46:57.421Z,24.78
2023-03-08T18:49:27.181Z,24.77
2023-03-08T18:51:55.168Z,24.75
2023-03-08T18:54:23.158Z,24.74
2023-03-08T18:56:53.728Z,24.73
2023-03-08T18:59:22.165Z,24.73
2023-03-08T19:01:51.028Z,24.71
2023-03-08T19:04:19.377Z,24.57
2023-03-08T19:06:48.827Z,24.68
2023-03-08T19:09:18.261Z,24.67
2023-03-08T19:11:47.949Z,24.65
2023-03-08T19:14:17.313Z,24.66
2023-03-08T19:16:45.382Z,24.64
2023-03-08T19:19:15.286Z,24.64
2023-03-08T19:21:45.132Z,24.63
2023-03-08T19:24:16.078Z,24.64
2023-03-08T19:26:47.520Z,24.63
2023-03-08T19:29:17.889Z,24.62
2023-03-08T19:31:47.604Z,24.63
2023-03-08T19:34:16.412Z,24.46
2023-03-08T19:36:45.657Z,24.42
2023-03-08T19:39:16.800Z,24.60
2023-03-08T19:41:45.674Z,24.60
2023-03-08T19:44:13.571Z,24.59
2023-03-08T19:46:41.541Z,24.59
2023-03-08T19:49:12.729Z,24.59
2023-03-08T19:51:41.160Z,24.59
2023-03-08T19:54:09.507Z,24.43
2023-03-08T19:56:38.722Z,24.57
2023-03-08T19:59:07.658Z,24.57
2023-03-08T20:01:36.592Z,24.58
2023-03-08T20:04:04.957Z,24.57
2023-03-08T20:06:35.081Z,24.58
2023-03-08T20:09:05.123Z,24.56
2023-03-08T20:11:33.989Z,24.56
2023-03-08T20:14:03.538Z,24.49
2023-03-08T20:16:31.985Z,24.60
2023-03-08T20:19:00.020Z,24.68
2023-03-08T20:21:29.771Z,24.73
2023-03-08T20:23:59.597Z,24.80
2023-03-08T20:26:29.251Z,24.88
2023-03-08T20:28:57.565Z,24.93
2023-03-08T20:31:28.949Z,25.01
2023-03-08T20:33:57.333Z,25.02
2023-03-08T20:36:25.719Z,25.04
2023-03-08T20:38:55.176Z,25.01
2023-03-08T20:41:23.762Z,25.13
2023-03-08T20:43:55.360Z,25.15
2023-03-08T20:46:25.212Z,25.17
2023-03-08T20:48:55.152Z,25.19
2023-03-08T20:51:24.347Z,24.97
2023-03-08T20:53:54.095Z,25.17
2023-03-08T20:56:24.530Z,25.16
2023-03-08T20:58:54.560Z,25.18
2023-03-08T21:01:24.968Z,25.18
2023-03-08T21:03:54.333Z,25.20
2023-03-08T21:06:24.353Z,25.22
2023-03-08T21:08:52.741Z,25.21
2023-03-08T21:11:21.022Z,25.23
2023-03-08T21:13:50.278Z,25.22
2023-03-08T21:16:20.586Z,25.12
2023-03-08T21:18:50.384Z,25.24
2023-03-08T21:21:21.678Z,25.23
2023-03-08T21:23:51.266Z,25.22
2023-03-08T21:26:20.699Z,25.21
2023-03-08T21:28:49.123Z,25.21
2023-03-08T21:31:17.639Z,25.16
2023-03-08T21:33:45.727Z,25.21
2023-03-08T21:36:13.745Z,25.20
2023-03-08T21:38:43.473Z,25.21
2023-03-08T21:41:17.946Z,25.01
2023-03-08T21:43:46.022Z,25.16
2023-03-08T21:46:14.024Z,25.20
2023-03-08T21:48:42.081Z,25.18
2023-03-08T21:51:10.238Z,25.17
2023-03-08T21:53:39.309Z,25.21
2023-03-08T21:56:10.159Z,25.23
2023-03-08T21:58:38.837Z,24.78
2023-03-08T22:01:07.977Z,25.21
2023-03-08T22:03:35.935Z,25.20
2023-03-08T22:06:03.951Z,25.20
2023-03-08T22:08:31.885Z,25.18
2023-03-08T22:10:59.737Z,25.17
2023-03-08T22:13:29.104Z,25.18
2023-03-08T22:15:57.020Z,25.18
2023-03-08T22:18:25.789Z,25.18
2023-03-08T22:20:55.059Z,25.19
2023-03-08T22:23:23.149Z,25.17
2023-03-08T22:25:51.120Z,25.16
2023-03-08T22:28:19.268Z,25.15
2023-03-08T22:30:48.773Z,25.16
2023-03-08T22:33:17.091Z,25.16
2023-03-08T22:35:46.726Z,25.07
2023-03-08T22:38:15.107Z,25.16
2023-03-08T22:40:43.704Z,25.16
2023-03-08T22:43:12.477Z,25.15
2023-03-08T22:45:40.514Z,24.92
2023-03-08T22:48:09.895Z,25.14
2023-03-08T22:50:37.926Z,25.10
2023-03-08T22:53:05.903Z,25.12
2023-03-08T22:55:34.273Z,24.89
2023-03-08T22:58:02.205Z,25.11
2023-03-08T23:00:30.203Z,25.09
2023-03-08T23:02:58.484Z,25.09
2023-03-08T23:05:27.913Z,25.09
2023-03-08T23:07:55.905Z,25.08
2023-03-08T23:10:23.945Z,25.07
2023-03-08T23:12:51.972Z,25.04
2023-03-08T23:15:20.096Z,24.99
2023-03-08T23:17:48.082Z,24.95
2023-03-08T23:20:19.848Z,24.92
2023-03-08T23:22:49.708Z,24.86
2023-03-08T23:25:18.725Z,24.77
2023-03-08T23:27:46.596Z,24.80
2023-03-08T23:30:18.146Z,24.78
2023-03-08T23:32:46.208Z,24.77
2023-03-08T23:35:14.386Z,24.74
2023-03-08T23:37:42.480Z,24.71
2023-03-08T23:40:14.121Z,24.70
2023-03-08T23:42:42.412Z,24.67
2023-03-08T23:45:11.930Z,24.64
2023-03-08T23:47:39.862Z,24.63
2023-03-08T23:50:09.183Z,24.62
2023-03-08T23:52:37.155Z,24.62
2023-03-08T23:55:05.532Z,24.60
2023-03-08T23:57:34.945Z,24.58
